createdAt,value
2022-08-12T00:00:18.319Z,95584.31
2022-08-12T00:03:23.105Z,95612.19
2022-08-12T00:06:28.018Z,95600.41
2022-08-12T00:09:32.521Z,95602.34
2022-08-12T00:12:37.489Z,95605.34
2022-08-12T00:15:42.441Z,95600.72
2022-08-12T00:18:47.671Z,95605.34
2022-08-12T00:21:51.917Z,95600.13
2022-08-12T00:24:56.692Z,95608.91
2022-08-12T00:28:01.982Z,95593.56
2022-08-12T00:31:06.477Z,95598.50
2022-08-12T00:34:11.255Z,95600.94
2022-08-12T00:37:16.291Z,95590.28
2022-08-12T00:40:23.187Z,95590.28
2022-08-12T00:43:10.265Z,95584.81
2022-08-12T00:46:14.970Z,95581.81
2022-08-12T00:49:01.974Z,95557.50
2022-08-12T00:52:09.170Z,95581.00
2022-08-12T00:54:58.081Z,95559.66
2022-08-12T00:57:47.939Z,95549.28
2022-08-12T01:00:34.778Z,95551.75
2022-08-12T01:03:21.334Z,95503.34
2022-08-12T01:06:26.744Z,95559.41
2022-08-12T01:09:33.422Z,95566.22
2022-08-12T01:12:19.890Z,95564.88
2022-08-12T01:15:06.481Z,95561.53
2022-08-12T01:17:52.665Z,95565.91
2022-08-12T01:21:23.126Z,95576.03
2022-08-12T01:24:31.236Z,95578.75
2022-08-12T01:27:20.078Z,95579.31
2022-08-12T01:30:08.801Z,95569.47
2022-08-12T01:32:56.246Z,95573.06
2022-08-12T01:35:57.857Z,95582.28
2022-08-12T01:38:59.355Z,95564.25
2022-08-12T01:41:53.730Z,95566.19
2022-08-12T01:44:40.293Z,95567.84
2022-08-12T01:47:41.109Z,95568.94
2022-08-12T01:50:36.933Z,95564.28
2022-08-12T01:53:26.452Z,95562.94
2022-08-12T01:56:12.524Z,95557.72
2022-08-12T01:59:22.046Z,95553.66
2022-08-12T02:02:22.963Z,95546.25
2022-08-12T02:05:33.363Z,95553.66
2022-08-12T02:09:06.660Z,95550.63
2022-08-12T02:11:55.684Z,95544.31
2022-08-12T02:14:51.839Z,95536.66
2022-08-12T02:17:55.206Z,95546.25
2022-08-12T02:21:04.039Z,95553.88
2022-08-12T02:23:50.826Z,95539.97
2022-08-12T02:26:39.892Z,95526.31
2022-08-12T02:29:26.025Z,95531.19
2022-08-12T02:32:12.513Z,95534.75
2022-08-12T02:34:59.216Z,95538.84
2022-08-12T02:37:47.559Z,95537.13
2022-08-12T02:40:37.030Z,95546.72
2022-08-12T02:43:22.942Z,95546.19
2022-08-12T02:46:14.539Z,95546.13
2022-08-12T02:49:03.535Z,95545.06
2022-08-12T02:51:50.854Z,95536.28
2022-08-12T02:54:37.785Z,95546.41
2022-08-12T02:57:24.927Z,95531.91
2022-08-12T03:00:13.549Z,95536.56
2022-08-12T03:03:01.140Z,95539.81
2022-08-12T03:05:58.254Z,95546.09
2022-08-12T03:08:52.559Z,95535.13
2022-08-12T03:11:45.416Z,95531.03
2022-08-12T03:14:35.970Z,95560.28
2022-08-12T03:17:35.081Z,95555.63
2022-08-12T03:20:26.724Z,95529.34
2022-08-12T03:23:23.094Z,95550.38
2022-08-12T03:26:16.514Z,95536.19
2022-08-12T03:29:06.665Z,95544.38
2022-08-12T03:31:54.001Z,95538.31
2022-08-12T03:34:40.899Z,95547.91
2022-08-12T03:37:30.424Z,95525.44
2022-08-12T03:40:36.278Z,95543.22
2022-08-12T03:43:46.051Z,95531.44
2022-08-12T03:46:55.923Z,95547.28
2022-08-12T03:50:00.513Z,95545.38
2022-08-12T03:53:04.958Z,95538.28
2022-08-12T03:56:10.322Z,95529.78
2022-08-12T03:59:17.314Z,95525.94
2022-08-12T04:02:03.512Z,95528.97
2022-08-12T04:04:50.136Z,95541.00
2022-08-12T04:07:36.009Z,95524.31
2022-08-12T04:10:22.421Z,95539.38
2022-08-12T04:13:19.798Z,95544.00
2022-08-12T04:16:08.009Z,95531.34
2022-08-12T04:18:54.040Z,95530.31
2022-08-12T04:21:42.115Z,95537.94
2022-08-12T04:24:50.462Z,95546.41
2022-08-12T04:27:36.704Z,95537.31
2022-08-12T04:30:32.282Z,95553.16
2022-08-12T04:33:19.980Z,95552.59
2022-08-12T04:36:06.402Z,95560.03
2022-08-12T04:38:56.473Z,95563.53
2022-08-12T04:41:50.330Z,95567.88
2022-08-12T04:44:45.130Z,95549.28
2022-08-12T04:47:30.906Z,95553.41
2022-08-12T04:50:34.037Z,95572.25
2022-08-12T04:53:21.822Z,95559.16
2022-08-12T04:56:08.476Z,95568.50
2022-08-12T04:58:55.398Z,95560.31
2022-08-12T05:01:41.553Z,95565.75
2022-08-12T05:04:27.852Z,95569.06
2022-08-12T05:07:14.406Z,95569.34
2022-08-12T05:10:02.601Z,95569.88
2022-08-12T05:12:53.011Z,95575.59
2022-08-12T05:16:04.302Z,95561.69
2022-08-12T05:18:46.204Z,95573.72
2022-08-12T05:21:34.116Z,95569.09
2022-08-12T05:24:20.016Z,95566.63
2022-08-12T05:27:05.908Z,95556.78
2022-08-12T05:30:06.502Z,95560.91
2022-08-12T05:32:59.033Z,95555.66
2022-08-12T05:35:47.734Z,95543.69
2022-08-12T05:38:52.888Z,95570.22
2022-08-12T05:41:39.648Z,95548.88
2022-08-12T05:44:25.996Z,95553.28
2022-08-12T05:47:14.763Z,95569.94
2022-08-12T05:50:00.712Z,95565.88
2022-08-12T05:52:48.193Z,95542.94
2022-08-12T05:55:35.213Z,95554.94
2022-08-12T05:58:21.373Z,95554.97
2022-08-12T06:02:09.790Z,95555.81
2022-08-12T06:04:14.280Z,95556.63
2022-08-12T06:07:01.867Z,95562.13
2022-08-12T06:09:47.894Z,95543.03
2022-08-12T06:12:33.917Z,95571.47
2022-08-12T06:15:20.748Z,95534.84
2022-08-12T06:18:14.110Z,95563.59
2022-08-12T06:21:02.597Z,95516.00
2022-08-12T06:23:49.739Z,95525.63
2022-08-12T06:26:35.876Z,95555.47
2022-08-12T06:30:07.318Z,95552.22
2022-08-12T06:32:28.833Z,95548.16
2022-08-12T06:51:10.545Z,95541.31
2022-08-12T06:53:58.017Z,95538.72
2022-08-12T06:57:03.747Z,95550.94
2022-08-12T06:59:51.139Z,95551.38
2022-08-12T07:02:37.443Z,95541.38
2022-08-12T07:05:27.391Z,95542.25
2022-08-12T13:15:59.790Z,95180.81
2022-08-12T13:18:47.417Z,95180.91
2022-08-12T13:21:36.675Z,95181.41
2022-08-12T13:24:31.709Z,95168.38
2022-08-12T13:27:18.759Z,95173.28
2022-08-12T13:30:10.752Z,95170.78
2022-08-12T13:32:58.928Z,95172.84
2022-08-12T13:36:05.536Z,95174.63
2022-08-12T13:38:54.249Z,95166.69
2022-08-12T13:41:40.933Z,95177.56
2022-08-12T13:44:27.312Z,95175.94
2022-08-12T13:47:19.538Z,95179.69
2022-08-12T13:50:09.388Z,95178.72
2022-08-12T13:52:56.630Z,95154.84
2022-08-12T13:55:47.684Z,95172.41
2022-08-12T13:58:35.093Z,95180.84
2022-08-12T14:01:22.141Z,95181.22
2022-08-12T14:04:11.683Z,95181.22
2022-08-12T14:07:01.388Z,95183.81
2022-08-12T14:10:16.342Z,95180.41
2022-08-12T14:13:10.401Z,95168.38
2022-08-12T14:16:04.610Z,95175.41
2022-08-12T14:18:51.236Z,95173.75
2022-08-12T14:22:00.741Z,95177.16
2022-08-12T14:24:43.753Z,95175.38
2022-08-12T14:28:03.732Z,95167.91
2022-08-12T14:30:36.561Z,95176.03
2022-08-12T14:33:24.577Z,95185.59
2022-08-12T14:36:14.465Z,95178.97
2022-08-12T14:39:02.414Z,95190.31
2022-08-12T14:41:57.056Z,95167.22
2022-08-12T14:44:59.000Z,95197.78
2022-08-12T14:47:58.284Z,95193.03
2022-08-12T14:52:10.448Z,95187.81
2022-08-12T14:56:26.246Z,95193.03
2022-08-12T14:57:19.868Z,95178.06
2022-08-12T15:00:29.032Z,95173.69
2022-08-12T15:03:15.591Z,95179.53
2022-08-12T15:06:43.819Z,95157.38
2022-08-12T15:09:16.172Z,95181.44
2022-08-12T15:12:04.087Z,95183.84
2022-08-12T15:14:50.445Z,95192.50
2022-08-12T15:17:59.351Z,95196.81
2022-08-12T15:20:43.717Z,95188.38
2022-08-12T15:23:32.753Z,95220.22
2022-08-12T15:26:20.630Z,95219.88
2022-08-12T15:29:12.326Z,95236.88
2022-08-12T15:32:04.447Z,95244.47
2022-08-12T15:34:56.841Z,95259.41
2022-08-12T15:37:58.885Z,95237.19
2022-08-12T15:40:50.543Z,95255.22
2022-08-12T15:44:16.120Z,95270.75
2022-08-12T15:46:42.569Z,95274.28
2022-08-12T15:49:28.792Z,95327.72
2022-08-12T15:52:30.199Z,95370.81
2022-08-12T15:55:18.149Z,95402.41
2022-08-12T15:58:07.704Z,95417.66
2022-08-12T16:00:54.230Z,95429.75
2022-08-12T16:04:00.282Z,95452.53
2022-08-12T16:10:04.834Z,95469.22
2022-08-12T16:12:56.538Z,95483.59
2022-08-12T16:15:51.088Z,95493.50
2022-08-12T16:18:49.009Z,95484.66
2022-08-12T16:21:50.518Z,95515.59
2022-08-12T16:24:43.648Z,95530.06
2022-08-12T16:27:31.667Z,95524.34
2022-08-12T16:30:39.923Z,95549.22
2022-08-12T16:33:59.436Z,95542.38
2022-08-12T16:36:47.651Z,95546.22
2022-08-12T16:39:40.124Z,95547.34
2022-08-12T16:42:53.603Z,95578.78
2022-08-12T16:46:07.931Z,95584.25
2022-08-12T16:48:55.458Z,95575.28
2022-08-12T16:51:46.568Z,95567.91
2022-08-12T16:54:36.353Z,95585.94
2022-08-12T16:57:32.439Z,95573.34
2022-08-12T17:00:29.417Z,95593.63
2022-08-12T17:03:28.654Z,95592.00
2022-08-12T17:06:16.879Z,95601.03
2022-08-12T17:09:08.390Z,95583.78
2022-08-12T17:11:55.350Z,95581.63
2022-08-12T17:14:43.121Z,95589.25
2022-08-12T17:17:39.800Z,95586.81
2022-08-12T17:20:36.571Z,95591.19
2022-08-12T17:23:33.233Z,95587.34
2022-08-12T17:26:34.574Z,95590.09
2022-08-12T17:29:24.176Z,95602.66
2022-08-12T17:32:30.590Z,95608.13
2022-08-12T17:35:37.101Z,95605.69
2022-08-12T17:38:24.080Z,95608.13
2022-08-12T17:41:23.354Z,95588.16
2022-08-12T17:44:16.763Z,95577.22
2022-08-12T17:47:16.832Z,95584.31
2022-08-12T17:50:08.754Z,95581.81
2022-08-12T17:53:03.258Z,95579.09
2022-08-12T17:55:59.917Z,95577.16
2022-08-12T17:58:51.314Z,95579.38
2022-08-12T18:01:46.305Z,95563.50
2022-08-12T18:04:35.614Z,95588.91
2022-08-12T18:07:23.606Z,95580.16
2022-08-12T18:10:38.889Z,95572.75
2022-08-12T18:13:40.177Z,95580.13
2022-08-12T18:16:29.100Z,95563.97
2022-08-12T18:19:15.309Z,95575.72
2022-08-12T18:22:02.999Z,95573.56
2022-08-12T18:24:52.341Z,95564.53
2022-08-12T18:27:49.129Z,95550.88
2022-08-12T18:30:59.643Z,95552.50
2022-08-12T18:33:49.900Z,95555.19
2022-08-12T18:36:36.733Z,95542.34
2022-08-12T18:39:22.859Z,95547.00
2022-08-12T18:42:12.671Z,95551.59
2022-08-12T18:45:02.338Z,95539.59
2022-08-12T18:47:50.109Z,95521.81
2022-08-12T18:50:49.127Z,95541.47
2022-08-12T18:54:07.504Z,95540.41
2022-08-12T18:56:45.531Z,95517.66
2022-08-12T19:00:02.301Z,95536.56
2022-08-12T19:02:40.755Z,95531.59
2022-08-12T19:05:53.782Z,95516.28
2022-08-12T19:08:36.252Z,95521.75
2022-08-12T19:11:45.288Z,95511.88
2022-08-12T19:14:33.144Z,95513.25
2022-08-12T19:17:20.726Z,95519.25
2022-08-12T19:20:07.392Z,95496.06
2022-08-12T19:23:02.145Z,95492.53
2022-08-12T19:26:01.278Z,95467.03
2022-08-12T19:28:49.396Z,95506.94
2022-08-12T19:32:01.910Z,95509.09
2022-08-12T19:38:06.957Z,95519.69
2022-08-12T19:40:55.334Z,95482.78
2022-08-12T19:44:00.694Z,95485.75
2022-08-12T19:46:53.034Z,95510.38
2022-08-12T19:49:50.064Z,95502.91
2022-08-12T19:52:36.315Z,95486.00
2022-08-12T19:55:22.641Z,95495.81
2022-08-12T19:58:17.868Z,95512.97
2022-08-12T20:01:11.044Z,95506.19
2022-08-12T20:03:59.343Z,95502.91
2022-08-12T20:06:51.560Z,95519.25
2022-08-12T20:09:41.237Z,95510.22
2022-08-12T20:12:41.359Z,95509.13
2022-08-12T20:15:44.893Z,95503.38
2022-08-12T20:18:44.540Z,95505.06
2022-08-12T20:21:40.340Z,95506.41
2022-08-12T20:24:31.219Z,95490.31
2022-08-12T20:27:29.613Z,95500.13
2022-08-12T20:30:52.641Z,95490.31
2022-08-12T20:33:32.825Z,95492.22
2022-08-12T20:36:42.672Z,95496.97
2022-08-12T20:39:52.565Z,95484.78
2022-08-12T20:42:37.299Z,95485.25
2022-08-12T20:45:25.863Z,95471.66
2022-08-12T20:48:21.573Z,95474.72
2022-08-12T20:51:13.426Z,95474.94
2022-08-12T20:54:09.660Z,95483.56
2022-08-12T20:56:58.009Z,95477.84
2022-08-12T20:59:49.555Z,95482.44
2022-08-12T21:02:35.810Z,95472.13
2022-08-12T21:06:11.795Z,95471.34
2022-08-12T21:08:52.741Z,95462.38
2022-08-12T21:11:54.256Z,95459.88
2022-08-12T21:14:53.932Z,95455.88
2022-08-12T21:18:09.657Z,95448.75
2022-08-12T21:21:24.072Z,95442.22
2022-08-12T21:24:11.501Z,95460.81
2022-08-12T21:27:07.518Z,95446.34
2022-08-12T21:29:55.057Z,95441.44
2022-08-12T21:32:43.442Z,95446.13
2022-08-12T21:35:35.856Z,95422.06
2022-08-12T21:38:30.599Z,95439.00
2022-08-12T21:41:21.057Z,95424.22
2022-08-12T21:44:24.495Z,95423.72
2022-08-12T21:47:20.813Z,95431.09
2022-08-12T21:50:09.041Z,95437.66
2022-08-12T21:52:57.575Z,95433.00
2022-08-12T21:55:44.093Z,95430.28
2022-08-12T21:58:29.881Z,95428.06
2022-08-12T22:01:20.350Z,95442.03
2022-08-12T22:04:27.908Z,95436.56
2022-08-12T22:07:14.091Z,95412.25
2022-08-12T22:10:06.317Z,95430.28
2022-08-12T22:12:58.512Z,95423.19
2022-08-12T22:15:53.112Z,95422.91
2022-08-12T22:18:44.395Z,95433.81
2022-08-12T22:21:37.943Z,95436.03
2022-08-12T22:24:35.006Z,95419.88
2022-08-12T22:27:32.671Z,95431.63
2022-08-12T22:30:38.493Z,95418.84
2022-08-12T22:33:25.099Z,95408.47
2022-08-12T22:36:11.335Z,95395.34
2022-08-12T22:38:59.167Z,95374.09
2022-08-12T22:42:03.826Z,95394.53
2022-08-12T22:45:16.123Z,95384.41
2022-08-12T22:48:02.525Z,95391.53
2022-08-12T22:50:49.088Z,95382.25
2022-08-12T22:53:36.763Z,95388.25
2022-08-12T22:56:30.673Z,95382.22
2022-08-12T22:59:17.734Z,95384.72
2022-08-12T23:02:07.782Z,95394.78
2022-08-12T23:04:58.384Z,95397.53
2022-08-12T23:07:58.955Z,95392.59
2022-08-12T23:10:47.096Z,95382.78
2022-08-12T23:13:45.846Z,95378.41
2022-08-12T23:16:33.935Z,95375.69
2022-08-12T23:19:38.414Z,95376.19
2022-08-12T23:23:05.504Z,95372.69
2022-08-12T23:25:54.584Z,95360.34
2022-08-12T23:29:00.401Z,95366.94
2022-08-12T23:32:06.297Z,95362.53
2022-08-12T23:34:56.044Z,95358.22
2022-08-12T23:37:53.949Z,95354.09
2022-08-12T23:40:41.081Z,95352.75
2022-08-12T23:43:38.806Z,95340.16
2022-08-12T23:46:27.252Z,95342.38
2022-08-12T23:49:55.214Z,95335.81
2022-08-12T23:52:19.600Z,95356.53
2022-08-12T23:55:24.832Z,95355.47
2022-08-12T23:58:21.341Z,95345.59
